METAR Reports - Misc

 

KGRB - Green Bay, Wisconsin, USA
Updated: 04/17/2024 9:53pm
Overcast
Overcast
 Wind from W
Wind: W 17 mph, 28 km/h, Gust: 26 mph, 43 km/h
Temperature: 48°F, 9°C
Wind Chill: 42°F, 6°C
Dew Point: 43°F, 6°C
Humidity: 82%
Barometer: 29.78 inHg, 1008.5 hPa
Clouds: Overcast
Visibility: 10 miles, 16 km
Cloud details: Overcast 2100 ft
2024/04/18 01:53 KGRB 180153Z 28015G23KT 10SM OVC021 09/06 A2978 RMK AO2 SLP086 T00940061
KMCD - Mackinac Island, Michigan, USA
Updated: 04/17/2024 9:55pm
Mist, Overcast
Mist, Overcast
 Wind from E
Wind: E 17 mph, 28 km/h, Gust: 24 mph, 39 km/h
Temperature: 39°F, 4°C
Wind Chill: 30°F, -1°C
Dew Point: 39°F, 4°C
Humidity: 100%
Barometer: 29.70 inHg, 1005.8 hPa
Summary: Mist
Clouds: Overcast
Visibility: 5 miles, 8 km
Cloud details: Overcast 200 ft
2024/04/18 01:55 KMCD 180155Z AUTO 10015G21KT 070V130 5SM BR OVC002 04/04 A2970 RMK AO2 T00420042
 
K06C - Schaumburg, Illinois, USA
Updated: 04/17/2024 9:55pm
Overcast
Overcast
 Wind from W
Wind: W 14 mph, 22 km/h, Gust: 23 mph, 37 km/h
Temperature: 55°F, 13°C
Dew Point: 45°F, 7°C
Humidity: 67%
Barometer: 29.91 inHg, 1012.9 hPa
Clouds: Overcast
Visibility: 10 miles, 16 km
Cloud details: Overcast 3000 ft
2024/04/18 01:55 K06C 180155Z AUTO 27012G20KT 10SM OVC030 13/07 A2991 RMK AO2 T01300070
KCLE - Cleveland, OH, USA
Updated: 04/17/2024 9:51pm
Mostly cloudy
Mostly cloudy
 Wind from W
Wind: W 5 mph, 7 km/h
Temperature: 63°F, 17°C
Dew Point: 54°F, 12°C
Humidity: 73%
Barometer: 29.82 inHg, 1009.8 hPa
Clouds: Mostly cloudy
Visibility: 10 miles, 16 km
Cloud details: Mostly cloudy 4800 ft
Mostly cloudy 7000 ft
Mostly cloudy 24000 ft
2024/04/18 01:51 KCLE 180151Z 27004KT 10SM BKN048 BKN070 BKN240 17/12 A2982 RMK AO2 SLP110 T01670122 $
 
KMMU - Morristown, New Jersey, USA
Updated: 04/17/2024 9:50pm
Light drizzle, Overcast
Light drizzle, Overcast
 Wind from E
Wind: E 7 mph, 11 km/h
Temperature: 50°F, 10°C
Wind Chill: 47°F, 8°C
Dew Point: 48°F, 9°C
Humidity: 94%
Barometer: 30.06 inHg, 1017.9 hPa
Summary: Light Drizzle
Clouds: Overcast
Visibility: 10 miles, 16 km
Cloud details: Mostly cloudy 2000 ft
Overcast 2700 ft
2024/04/18 01:50 KMMU 180150Z 09006KT 10SM -DZ BKN020 OVC027 10/09 A3006
KSDF - Louisville, Kentucky, USA
Updated: 04/17/2024 9:56pm
Clear
Clear
 Wind from WNW
Wind: WNW 12 mph, 19 km/h
Temperature: 75°F, 24°C
Dew Point: 45°F, 7°C
Humidity: 34%
Barometer: 29.95 inHg, 1014.2 hPa
Clouds: Clear
Visibility: 10 miles, 16 km
2024/04/18 01:56 KSDF 180156Z 30010KT 10SM CLR 24/07 A2995 RMK AO2 SLP138 T02390067